createdAt,value
2018-12-08T00:01:40.350Z,8.30
2018-12-08T00:04:09.233Z,8.30
2018-12-08T00:06:38.191Z,8.40
2018-12-08T00:09:07.275Z,8.50
2018-12-08T00:11:37.564Z,8.40
2018-12-08T00:14:06.433Z,8.50
2018-12-08T00:16:35.371Z,8.40
2018-12-08T00:19:04.353Z,8.50
2018-12-08T00:21:33.214Z,8.50
2018-12-08T00:24:02.122Z,8.40
2018-12-08T00:26:31.051Z,8.40
2018-12-08T00:29:00.021Z,8.50
2018-12-08T00:31:43.796Z,8.60
2018-12-08T00:34:12.736Z,8.60
2018-12-08T00:36:41.848Z,8.70
2018-12-08T00:39:10.824Z,8.60
2018-12-08T00:41:39.805Z,8.60
2018-12-08T00:44:08.744Z,8.70
2018-12-08T00:46:37.650Z,8.70
2018-12-08T00:49:06.581Z,8.50
2018-12-08T00:51:35.451Z,8.70
2018-12-08T00:54:07.878Z,8.70
2018-12-08T00:59:06.512Z,8.80
2018-12-08T01:01:35.564Z,8.80
2018-12-08T01:04:04.432Z,8.70
2018-12-08T01:06:33.391Z,8.70
2018-12-08T01:09:02.403Z,8.70
2018-12-08T01:14:01.099Z,8.50
2018-12-08T01:16:30.018Z,8.50
2018-12-08T01:18:58.904Z,8.50
2018-12-08T01:23:56.378Z,8.40
2018-12-08T01:26:25.390Z,8.60
2018-12-08T01:28:54.297Z,8.70
2018-12-08T01:31:23.176Z,8.50
2018-12-08T01:33:52.109Z,8.50
2018-12-08T01:36:21.057Z,8.60
2018-12-08T01:38:50.005Z,8.50
2018-12-08T01:41:18.935Z,8.80
2018-12-08T01:43:47.857Z,8.80
2018-12-08T01:46:16.852Z,8.90
2018-12-08T01:48:45.844Z,8.90
2018-12-08T01:53:43.440Z,8.60
2018-12-08T01:56:12.362Z,8.70
2018-12-08T01:58:41.247Z,8.70
2018-12-08T02:01:10.169Z,8.80
2018-12-08T02:03:39.099Z,8.80
2018-12-08T02:06:08.076Z,8.80
2018-12-08T02:08:37.065Z,8.70
2018-12-08T02:13:36.536Z,8.90
2018-12-08T02:18:34.110Z,8.90
2018-12-08T02:21:03.046Z,8.80
2018-12-08T02:23:31.931Z,8.80
2018-12-08T02:26:00.928Z,8.80
2018-12-08T02:31:01.218Z,8.60
2018-12-08T02:33:30.160Z,8.70
2018-12-08T02:35:59.114Z,8.50
2018-12-08T02:38:28.066Z,8.70
2018-12-08T02:40:57.054Z,8.80
2018-12-08T02:43:25.958Z,8.80
2018-12-08T02:45:54.834Z,8.80
2018-12-08T02:48:23.725Z,8.70
2018-12-08T02:50:52.599Z,8.80
2018-12-08T02:53:21.551Z,8.80
2018-12-08T02:55:50.564Z,8.60
2018-12-08T02:58:19.547Z,8.70
2018-12-08T03:00:48.439Z,8.70
2018-12-08T03:05:45.844Z,8.60
2018-12-08T03:08:14.729Z,8.60
2018-12-08T03:13:12.365Z,8.70
2018-12-08T03:15:41.265Z,8.70
2018-12-08T03:18:10.224Z,8.70
2018-12-08T03:20:39.194Z,8.70
2018-12-08T03:23:08.161Z,8.60
2018-12-08T03:28:05.686Z,8.30
2018-12-08T03:30:34.637Z,8.50
2018-12-08T03:33:03.546Z,8.70
2018-12-08T03:35:32.468Z,8.70
2018-12-08T03:38:01.525Z,8.30
2018-12-08T03:40:30.433Z,8.30
2018-12-08T03:42:59.348Z,8.60
2018-12-08T03:45:28.218Z,8.50
2018-12-08T03:47:57.152Z,8.50
2018-12-08T03:50:26.154Z,8.70
2018-12-08T03:52:55.102Z,8.40
2018-12-08T03:55:24.022Z,8.40
2018-12-08T04:00:21.490Z,8.60
2018-12-08T04:05:19.007Z,8.60
2018-12-08T04:07:47.940Z,8.60
2018-12-08T04:10:16.861Z,8.60
2018-12-08T04:12:45.893Z,8.50
2018-12-08T04:15:14.951Z,8.60
2018-12-08T04:17:43.858Z,8.60
2018-12-08T04:20:12.758Z,8.70
2018-12-08T04:22:41.736Z,8.90
2018-12-08T04:25:12.759Z,8.70
2018-12-08T04:30:10.222Z,8.70
2018-12-08T04:32:39.153Z,8.80
2018-12-08T04:35:08.221Z,8.70
2018-12-08T04:40:05.870Z,8.70
2018-12-08T04:42:35.271Z,8.80
2018-12-08T04:45:04.461Z,8.80
2018-12-08T04:47:35.323Z,8.90
2018-12-08T04:50:04.758Z,8.90
2018-12-08T04:52:33.660Z,9.00
2018-12-08T04:57:31.230Z,8.70
2018-12-08T05:00:00.136Z,8.90
2018-12-08T05:02:29.115Z,8.90
2018-12-08T05:07:26.695Z,8.90
2018-12-08T05:12:24.146Z,8.70
2018-12-08T05:14:53.063Z,8.70
2018-12-08T05:17:21.948Z,8.60
2018-12-08T05:24:47.924Z,8.60
2018-12-08T05:27:16.877Z,8.60
2018-12-08T05:32:14.378Z,8.60
2018-12-08T05:37:13.060Z,8.50
2018-12-08T05:39:42.179Z,8.50
2018-12-08T05:44:39.759Z,8.40
2018-12-08T05:47:08.743Z,8.50
2018-12-08T05:49:37.699Z,8.40
2018-12-08T05:54:35.203Z,8.20
2018-12-08T05:57:04.142Z,8.40
2018-12-08T05:59:33.994Z,8.40
2018-12-08T06:02:03.033Z,8.20
2018-12-08T06:07:00.570Z,8.20
2018-12-08T06:09:29.677Z,8.20
2018-12-08T06:11:58.757Z,8.20
2018-12-08T06:14:28.996Z,8.40
2018-12-08T06:16:58.138Z,8.30
2018-12-08T06:19:27.120Z,8.20
2018-12-08T06:21:56.480Z,8.30
2018-12-08T06:24:25.422Z,8.30
2018-12-08T06:26:59.805Z,8.30
2018-12-08T06:29:29.333Z,8.40
2018-12-08T06:39:23.968Z,8.10
2018-12-08T06:41:52.889Z,8.20
2018-12-08T06:44:21.860Z,8.20
2018-12-08T06:51:47.909Z,8.00
2018-12-08T06:54:16.816Z,8.00
2018-12-08T06:56:46.026Z,7.90
2018-12-08T07:04:12.351Z,8.00
2018-12-08T07:06:41.255Z,7.90
2018-12-08T07:09:25.861Z,7.90
2018-12-08T07:11:54.741Z,7.90
2018-12-08T07:14:23.804Z,8.10
2018-12-08T07:16:52.902Z,8.00
2018-12-08T07:21:50.561Z,8.00
2018-12-08T07:24:19.481Z,8.00
2018-12-08T07:26:48.461Z,7.90
2018-12-08T07:31:46.625Z,8.00
2018-12-08T07:34:15.950Z,8.10
2018-12-08T07:36:44.941Z,7.90
2018-12-08T07:39:14.931Z,8.00
2018-12-08T07:41:43.844Z,8.10
2018-12-08T07:46:41.591Z,7.90
2018-12-08T07:49:10.545Z,7.90
2018-12-08T07:51:39.473Z,8.00
2018-12-08T07:56:37.008Z,8.00
2018-12-08T07:59:05.995Z,8.10
2018-12-08T08:01:34.918Z,7.90
2018-12-08T08:09:00.952Z,8.00
2018-12-08T08:13:58.354Z,8.00
2018-12-08T08:16:27.282Z,8.10
2018-12-08T08:21:25.964Z,8.10
2018-12-08T08:23:54.871Z,8.20
2018-12-08T08:28:52.515Z,8.10
2018-12-08T08:33:49.950Z,8.00
2018-12-08T08:36:18.855Z,8.10
2018-12-08T08:46:15.351Z,8.00
2018-12-08T08:48:44.413Z,7.90
2018-12-08T08:51:13.392Z,8.10
2018-12-08T08:53:42.283Z,8.00
2018-12-08T08:56:11.281Z,8.20
2018-12-08T08:58:40.137Z,8.10
2018-12-08T09:01:09.167Z,8.40
2018-12-08T09:06:06.716Z,8.50
2018-12-08T09:08:35.682Z,8.70
2018-12-08T09:13:33.339Z,8.90
2018-12-08T09:23:29.962Z,9.10
2018-12-08T09:25:58.982Z,9.10
2018-12-08T09:28:45.790Z,9.20
2018-12-08T09:31:15.986Z,9.40
2018-12-08T09:33:44.923Z,9.60
2018-12-08T09:36:13.919Z,9.70
2018-12-08T09:41:11.897Z,9.60
2018-12-08T09:46:09.727Z,9.80
2018-12-08T09:48:38.660Z,10.00
2018-12-08T09:51:07.598Z,10.10
2018-12-08T09:53:36.714Z,10.10
2018-12-08T09:56:06.712Z,10.20
2018-12-08T09:58:35.636Z,10.20
2018-12-08T10:03:50.033Z,10.40
2018-12-08T10:06:19.103Z,10.70
2018-12-08T10:11:16.708Z,10.70
2018-12-08T10:13:45.693Z,10.80
2018-12-08T10:16:14.652Z,10.70
2018-12-08T10:23:40.650Z,11.10
2018-12-08T10:26:09.636Z,11.20
2018-12-08T10:28:41.370Z,11.40
2018-12-08T10:31:10.380Z,11.60
2018-12-08T10:33:39.363Z,11.60
2018-12-08T10:36:08.254Z,11.70
2018-12-08T10:38:37.173Z,11.90
2018-12-08T10:41:06.112Z,12.20
2018-12-08T10:43:35.109Z,12.00
2018-12-08T10:46:04.006Z,12.00
2018-12-08T10:48:32.979Z,12.30
2018-12-08T10:51:01.965Z,12.20
2018-12-08T10:53:32.907Z,12.40
2018-12-08T10:56:01.922Z,12.30
2018-12-08T10:58:30.909Z,12.30
2018-12-08T11:03:48.732Z,12.40
2018-12-08T11:06:17.733Z,12.60
2018-12-08T11:11:15.147Z,12.50
2018-12-08T11:13:44.057Z,12.60
2018-12-08T11:16:12.978Z,12.70
2018-12-08T11:18:42.073Z,12.70
2018-12-08T11:21:10.951Z,12.80
2018-12-08T11:23:39.906Z,12.70
2018-12-08T11:26:08.962Z,12.80
2018-12-08T11:28:37.874Z,12.60
2018-12-08T11:31:06.787Z,12.70
2018-12-08T11:33:35.710Z,12.80
2018-12-08T11:36:04.638Z,12.80
2018-12-08T11:38:33.590Z,13.00
2018-12-08T11:41:02.471Z,13.00
2018-12-08T11:43:31.495Z,13.00
2018-12-08T11:46:00.488Z,12.90
2018-12-08T11:48:29.362Z,13.00
2018-12-08T11:50:58.276Z,13.40
2018-12-08T11:53:27.162Z,13.40
2018-12-08T11:55:56.098Z,13.40
2018-12-08T11:58:25.223Z,13.30
2018-12-08T12:00:54.186Z,13.80
2018-12-08T12:03:23.122Z,13.90
2018-12-08T12:05:52.047Z,14.00
2018-12-08T12:08:21.171Z,14.10
2018-12-08T12:10:50.199Z,14.70
2018-12-08T12:13:19.154Z,15.10
2018-12-08T12:15:48.075Z,14.10
2018-12-08T12:18:16.965Z,14.60
2018-12-08T12:20:45.875Z,15.00
2018-12-08T12:23:14.874Z,15.10
2018-12-08T12:25:43.961Z,15.70
2018-12-08T12:28:12.896Z,15.80
2018-12-08T12:30:41.921Z,14.20
2018-12-08T12:33:10.850Z,13.90
2018-12-08T12:35:39.739Z,15.40
2018-12-08T12:38:08.633Z,15.30
2018-12-08T12:40:37.645Z,15.40
2018-12-08T12:43:06.569Z,14.90
2018-12-08T12:45:35.443Z,14.90
2018-12-08T12:48:04.443Z,15.30
2018-12-08T12:50:33.330Z,14.60
2018-12-08T12:53:02.219Z,14.90
2018-12-08T12:55:31.118Z,14.80
2018-12-08T12:58:00.171Z,15.50
2018-12-08T13:00:29.113Z,15.40
2018-12-08T13:02:58.125Z,15.20
2018-12-08T13:05:27.040Z,15.20
2018-12-08T13:07:55.957Z,14.90
2018-12-08T13:10:24.878Z,15.50
2018-12-08T13:12:53.761Z,15.70
2018-12-08T13:15:22.796Z,16.00
2018-12-08T13:17:51.777Z,16.00
2018-12-08T13:20:20.678Z,16.70
2018-12-08T13:22:49.559Z,15.70
2018-12-08T13:25:24.549Z,15.30
2018-12-08T13:27:53.464Z,15.10
2018-12-08T13:30:22.575Z,15.30
2018-12-08T13:32:52.550Z,16.20
2018-12-08T13:35:32.441Z,16.00
2018-12-08T13:38:01.404Z,16.80
2018-12-08T13:40:30.304Z,17.40
2018-12-08T13:42:59.271Z,16.30
2018-12-08T13:45:28.200Z,15.00
2018-12-08T13:47:57.135Z,16.30
2018-12-08T13:50:26.064Z,16.30
2018-12-08T13:52:55.014Z,15.20
2018-12-08T13:55:27.017Z,14.40
2018-12-08T13:57:55.932Z,14.80
2018-12-08T14:00:24.796Z,14.70
2018-12-08T14:02:53.683Z,14.20
2018-12-08T14:05:22.738Z,15.00
2018-12-08T14:07:51.664Z,14.80
2018-12-08T14:10:20.684Z,15.10
2018-12-08T14:12:49.597Z,15.20
2018-12-08T14:15:21.559Z,15.30
2018-12-08T14:17:50.463Z,15.10
2018-12-08T14:20:27.290Z,14.60
2018-12-08T14:22:56.231Z,14.70
2018-12-08T14:25:25.170Z,15.00
2018-12-08T14:27:54.140Z,15.00
2018-12-08T14:30:23.111Z,14.50
2018-12-08T14:32:52.055Z,13.90
2018-12-08T14:35:21.017Z,14.00
2018-12-08T14:37:50.001Z,14.50
2018-12-08T14:40:19.016Z,14.70
2018-12-08T14:42:47.994Z,15.10
2018-12-08T14:45:23.076Z,14.80
2018-12-08T14:47:59.387Z,14.80
2018-12-08T14:50:29.526Z,14.90
2018-12-08T14:52:58.421Z,14.60
2018-12-08T14:55:27.329Z,14.90
2018-12-08T14:57:56.267Z,15.20
2018-12-08T15:00:25.184Z,14.70
2018-12-08T15:02:54.276Z,15.10
2018-12-08T15:05:23.214Z,14.80
2018-12-08T15:07:52.280Z,14.20
2018-12-08T15:10:21.953Z,14.20
2018-12-08T15:12:51.158Z,14.20
2018-12-08T15:15:20.115Z,13.90
2018-12-08T15:17:49.074Z,13.40
2018-12-08T15:20:18.036Z,13.10
2018-12-08T15:22:46.963Z,12.90
2018-12-08T15:25:16.031Z,12.80
2018-12-08T15:27:45.272Z,12.70
2018-12-08T15:30:14.252Z,12.50
2018-12-08T15:32:45.952Z,12.30
2018-12-08T15:35:15.871Z,12.30
2018-12-08T15:37:44.991Z,12.20
2018-12-08T15:40:14.421Z,11.90
2018-12-08T15:42:43.587Z,12.00
2018-12-08T15:45:12.644Z,12.00
2018-12-08T15:47:41.671Z,11.80
2018-12-08T15:50:11.664Z,11.80
2018-12-08T15:52:40.688Z,11.40
2018-12-08T15:55:09.711Z,11.30
2018-12-08T15:57:39.090Z,11.40
2018-12-08T16:00:10.747Z,11.60
2018-12-08T16:02:39.864Z,11.30
2018-12-08T16:05:09.362Z,11.10
2018-12-08T16:07:38.426Z,11.10
2018-12-08T16:10:08.473Z,11.00
2018-12-08T16:12:37.539Z,10.80
2018-12-08T16:15:08.101Z,10.60
2018-12-08T16:17:37.086Z,10.70
2018-12-08T16:20:09.574Z,10.50
2018-12-08T16:22:39.046Z,10.40
2018-12-08T16:25:08.182Z,10.50
2018-12-08T16:27:37.241Z,10.40
2018-12-08T16:30:08.150Z,10.20
2018-12-08T16:32:37.171Z,10.30
2018-12-08T16:35:06.139Z,10.20
2018-12-08T16:37:35.279Z,10.10
2018-12-08T16:40:04.843Z,10.10
2018-12-08T16:42:34.187Z,10.10
2018-12-08T16:45:03.440Z,10.20
2018-12-08T16:47:32.407Z,10.10
2018-12-08T16:50:01.430Z,9.90
2018-12-08T16:54:59.269Z,9.90
2018-12-08T16:57:28.345Z,9.90
2018-12-08T16:59:57.373Z,9.70
2018-12-08T17:07:24.673Z,9.90
2018-12-08T17:09:53.680Z,9.80
2018-12-08T17:12:22.627Z,9.90
2018-12-08T17:14:52.221Z,9.60
2018-12-08T17:17:21.219Z,9.70
2018-12-08T17:19:50.262Z,9.60
2018-12-08T17:22:19.360Z,9.50
2018-12-08T17:24:48.326Z,9.40
2018-12-08T17:29:45.925Z,9.60
2018-12-08T17:32:14.894Z,9.30
2018-12-08T17:34:44.180Z,9.40
2018-12-08T17:37:13.163Z,9.10
2018-12-08T17:39:42.792Z,9.00
2018-12-08T17:42:11.787Z,8.90
2018-12-08T17:44:41.007Z,9.20
2018-12-08T17:47:09.987Z,9.30
2018-12-08T17:49:39.068Z,9.30
2018-12-08T17:54:36.891Z,8.70
2018-12-08T17:57:05.986Z,8.70
2018-12-08T17:59:34.977Z,8.80
2018-12-08T18:02:04.521Z,9.00
2018-12-08T18:04:33.439Z,8.90
2018-12-08T18:07:02.509Z,8.90
2018-12-08T18:09:31.402Z,8.70
2018-12-08T18:12:00.417Z,8.90
2018-12-08T18:14:29.556Z,8.90
2018-12-08T18:16:58.559Z,9.00
2018-12-08T18:19:27.561Z,8.90
2018-12-08T18:21:59.273Z,8.90
2018-12-08T18:35:55.093Z,9.10
2018-12-08T18:38:24.126Z,9.20
2018-12-08T18:40:53.221Z,9.00
2018-12-08T18:43:22.274Z,9.10
2018-12-08T18:45:51.240Z,9.00
2018-12-08T18:48:20.307Z,9.20
2018-12-08T18:50:49.426Z,9.20
2018-12-08T18:53:18.686Z,9.20
2018-12-08T18:55:47.711Z,9.10
2018-12-08T18:58:33.575Z,9.30
2018-12-08T19:01:02.546Z,9.30
2018-12-08T19:03:32.580Z,9.20
2018-12-08T19:06:01.609Z,9.00
2018-12-08T19:08:30.630Z,9.00
2018-12-08T19:10:59.708Z,8.80
2018-12-08T19:13:29.324Z,9.00
2018-12-08T19:15:59.538Z,9.10
2018-12-08T19:18:28.544Z,9.10
2018-12-08T19:20:57.536Z,9.00
2018-12-08T19:23:26.662Z,8.70
2018-12-08T19:25:55.653Z,8.80
2018-12-08T19:28:25.943Z,9.00
2018-12-08T19:30:55.002Z,9.00
2018-12-08T19:33:24.112Z,8.80
2018-12-08T19:40:50.714Z,8.70
2018-12-08T19:43:24.798Z,8.80
2018-12-08T19:48:22.657Z,8.40
2018-12-08T19:50:51.698Z,8.40
2018-12-08T19:53:20.746Z,8.40
2018-12-08T19:55:49.719Z,8.30
2018-12-08T20:00:47.318Z,8.20
2018-12-08T20:03:16.444Z,8.40
2018-12-08T20:05:45.423Z,8.20
2018-12-08T20:08:14.394Z,8.50
2018-12-08T20:10:43.409Z,8.50
2018-12-08T20:13:12.394Z,8.10
2018-12-08T20:15:41.330Z,8.10
2018-12-08T20:18:10.290Z,7.90
2018-12-08T20:20:39.239Z,7.80
2018-12-08T20:23:08.290Z,7.80
2018-12-08T20:25:37.234Z,7.80
2018-12-08T20:28:06.272Z,7.70
2018-12-08T20:30:35.297Z,7.80
2018-12-08T20:35:33.009Z,8.40
2018-12-08T20:38:01.993Z,8.20
2018-12-08T20:40:31.000Z,8.30
2018-12-08T20:45:28.643Z,7.70
2018-12-08T20:47:58.616Z,7.50
2018-12-08T20:52:56.130Z,7.40
2018-12-08T20:55:27.564Z,7.70
2018-12-08T20:57:56.576Z,7.70
2018-12-08T21:05:38.038Z,7.60
2018-12-08T21:08:08.154Z,7.50
2018-12-08T21:13:06.840Z,7.50
2018-12-08T21:15:35.852Z,7.50
2018-12-08T21:20:33.505Z,7.80
2018-12-08T21:23:02.478Z,7.90
2018-12-08T21:25:31.437Z,7.70
2018-12-08T21:28:01.632Z,7.50
2018-12-08T21:30:30.692Z,7.60
2018-12-08T21:32:59.722Z,7.80
2018-12-08T21:35:28.700Z,7.50
2018-12-08T21:37:57.690Z,7.30
2018-12-08T21:40:28.576Z,7.30
2018-12-08T21:42:57.595Z,7.30
2018-12-08T21:47:55.869Z,7.20
2018-12-08T21:50:24.794Z,7.10
2018-12-08T21:52:53.730Z,6.90
2018-12-08T21:55:22.717Z,6.90
2018-12-08T21:57:51.719Z,6.90
2018-12-08T22:00:20.963Z,6.80
2018-12-08T22:05:18.569Z,6.90
2018-12-08T22:07:47.499Z,7.00
2018-12-08T22:10:16.492Z,7.00
2018-12-08T22:12:45.461Z,7.20
2018-12-08T22:15:15.522Z,6.90
2018-12-08T22:17:45.240Z,7.00
2018-12-08T22:20:14.269Z,7.20
2018-12-08T22:22:43.393Z,7.00
2018-12-08T22:25:12.371Z,7.00
2018-12-08T22:27:41.372Z,6.90
2018-12-08T22:30:10.385Z,6.80
2018-12-08T22:35:08.087Z,6.80
2018-12-08T22:37:37.089Z,6.80
2018-12-08T22:40:07.091Z,7.00
2018-12-08T22:45:05.408Z,7.20
2018-12-08T22:47:34.387Z,7.10
2018-12-08T22:50:03.538Z,7.00
2018-12-08T22:52:32.508Z,6.90
2018-12-08T22:55:01.448Z,7.10
2018-12-08T23:00:00.205Z,6.80
2018-12-08T23:02:29.200Z,6.80
2018-12-08T23:04:58.151Z,6.70
2018-12-08T23:09:55.837Z,6.80
2018-12-08T23:12:24.857Z,6.80
2018-12-08T23:17:22.414Z,6.60
2018-12-08T23:19:51.349Z,6.50
2018-12-08T23:22:20.314Z,6.70
2018-12-08T23:24:49.290Z,6.70
2018-12-08T23:29:46.838Z,6.70
2018-12-08T23:32:15.718Z,6.70
2018-12-08T23:34:44.710Z,6.60
2018-12-08T23:37:13.651Z,6.60
2018-12-08T23:39:42.715Z,6.60
2018-12-08T23:42:11.639Z,6.60
2018-12-08T23:44:40.592Z,6.60
2018-12-08T23:49:38.385Z,6.60
2018-12-08T23:52:07.406Z,6.80
2018-12-08T23:54:36.454Z,6.80
2018-12-08T23:57:05.541Z,6.70
2018-12-08T23:59:34.675Z,6.40
